createdAt,value
2016-06-06T08:40:09.246Z,48.25
2016-06-06T08:41:09.233Z,48.52
2016-06-06T08:42:09.236Z,49
2016-06-06T08:43:09.255Z,49.37
2016-06-06T08:44:09.241Z,49.63
2016-06-06T08:45:09.166Z,49.81
2016-06-06T08:46:09.293Z,50.03
2016-06-06T08:47:09.296Z,50.03
2016-06-06T08:48:09.299Z,49.76
2016-06-06T08:49:09.161Z,49.33
2016-06-06T08:50:09.335Z,49.26
2016-06-06T08:51:09.338Z,49.44
2016-06-06T08:52:09.357Z,49.41
2016-06-06T08:53:09.218Z,49.37
2016-06-06T08:54:09.377Z,49.19
2016-06-06T08:55:09.380Z,49.31
2016-06-06T08:56:09.414Z,49.59
2016-06-06T08:57:09.401Z,49.53
2016-06-06T08:58:09.419Z,49.56
2016-06-06T08:59:09.985Z,49.56
2016-06-06T09:00:09.393Z,49.53
2016-06-06T09:01:09.443Z,49.75
2016-06-06T09:02:09.462Z,50.15
2016-06-06T09:03:09.464Z,50.71
2016-06-06T09:04:09.482Z,51.11
2016-06-06T09:05:09.501Z,51.25
2016-06-06T09:06:09.503Z,51.61
2016-06-06T09:07:09.506Z,51.13
2016-06-06T09:08:09.524Z,50.39
2016-06-06T09:09:09.528Z,49.22
2016-06-06T09:10:09.545Z,48.36
2016-06-06T09:11:09.548Z,48.22
2016-06-06T09:12:09.567Z,48.51
2016-06-06T09:13:09.569Z,48.8
2016-06-06T09:14:09.603Z,49.19
2016-06-06T09:15:09.652Z,49.4
2016-06-06T09:16:09.593Z,49.21
2016-06-06T09:17:09.611Z,48.87
2016-06-06T09:18:09.630Z,48.67
2016-06-06T09:19:09.632Z,48.77
2016-06-06T09:20:09.635Z,49.02
2016-06-06T09:21:09.638Z,48.99
2016-06-06T09:22:09.499Z,49.17
2016-06-06T09:23:09.658Z,49.15
2016-06-06T09:24:09.677Z,48.93
2016-06-06T09:25:09.679Z,48.48
2016-06-06T09:26:09.682Z,48.53
2016-06-06T09:27:09.701Z,48.2
2016-06-06T09:28:09.704Z,47.8
2016-06-06T09:29:10.378Z,47.64
2016-06-06T09:30:09.818Z,47.6
2016-06-06T09:31:09.414Z,47.58
2016-06-06T09:32:09.729Z,47.21
2016-06-06T09:33:09.732Z,46.58
2016-06-06T09:34:09.767Z,46.02
2016-06-06T09:35:09.770Z,45.39
2016-06-06T09:36:09.772Z,44.62
2016-06-06T09:37:09.884Z,43.75
2016-06-06T09:38:09.777Z,42.74
2016-06-06T09:39:09.623Z,41.99
2016-06-06T09:40:09.783Z,41.45
2016-06-06T09:41:09.801Z,40.59
2016-06-06T09:42:09.803Z,39.98
2016-06-06T09:43:09.822Z,39.26
2016-06-06T09:44:10.668Z,38.51
2016-06-06T09:45:09.843Z,38.1
2016-06-06T09:46:09.830Z,37.67
2016-06-06T09:47:09.848Z,37.31
2016-06-06T09:48:09.850Z,37.14
2016-06-06T09:49:09.853Z,36.8
2016-06-06T09:50:09.855Z,36.45
2016-06-06T09:51:09.890Z,36.28
2016-06-06T09:52:09.877Z,36.01
2016-06-06T09:53:09.880Z,35.72
2016-06-06T09:54:09.930Z,35.41
2016-06-06T09:55:09.901Z,35.13
2016-06-06T09:56:09.904Z,34.81
2016-06-06T09:57:09.907Z,34.59
2016-06-06T09:58:09.909Z,34.29
2016-06-06T09:59:09.927Z,34.04
2016-06-06T10:00:09.930Z,33.85
2016-06-06T10:01:09.933Z,33.54
2016-06-06T10:02:09.935Z,33.36
2016-06-06T10:03:09.954Z,33.2
2016-06-06T10:04:09.956Z,33.01
2016-06-06T10:05:09.959Z,32.83
2016-06-06T10:06:09.962Z,32.64
2016-06-06T10:07:09.981Z,32.48
2016-06-06T10:08:09.983Z,32.39
2016-06-06T10:09:09.986Z,32.53
2016-06-06T10:10:09.847Z,32.51
2016-06-06T10:11:10.007Z,32.53
2016-06-06T10:12:10.150Z,32.45
2016-06-06T10:13:10.011Z,32.49
2016-06-06T10:14:10.265Z,32.45
2016-06-06T10:15:10.033Z,32.35
2016-06-06T10:16:10.036Z,32.34
2016-06-06T10:17:10.038Z,32.39
2016-06-06T10:18:10.041Z,32.39
2016-06-06T10:19:10.044Z,32.35
2016-06-06T10:20:10.047Z,32.11
2016-06-06T10:21:10.064Z,32.04
2016-06-06T10:22:10.067Z,31.87
2016-06-06T10:23:10.086Z,31.79
2016-06-06T10:24:10.072Z,31.74
2016-06-06T10:25:10.107Z,31.78
2016-06-06T10:26:09.953Z,31.92
2016-06-06T10:27:10.096Z,31.92
2016-06-06T10:28:10.098Z,32.15
2016-06-06T10:29:10.118Z,32.27
2016-06-06T10:30:10.667Z,32.31
2016-06-06T10:31:10.123Z,32.29
2016-06-06T10:32:10.125Z,32.22
2016-06-06T10:33:10.128Z,32.07
2016-06-06T10:34:10.146Z,32.05
2016-06-06T10:35:10.149Z,31.92
2016-06-06T10:36:10.151Z,31.78
2016-06-06T10:37:10.154Z,31.77
2016-06-06T10:38:10.172Z,31.59
2016-06-06T10:39:10.176Z,31.64
2016-06-06T10:40:10.178Z,31.42
2016-06-06T10:41:10.181Z,31.11
2016-06-06T10:42:10.183Z,30.76
2016-06-06T10:43:10.186Z,30.56
2016-06-06T10:44:10.939Z,30.52
2016-06-06T10:45:10.223Z,30.06
2016-06-06T10:46:10.210Z,29.86
2016-06-06T10:47:10.213Z,29.62
2016-06-06T10:48:10.231Z,29.55
2016-06-06T10:49:10.233Z,29.62
2016-06-06T10:50:10.236Z,29.55
2016-06-06T10:51:10.239Z,29.55
2016-06-06T10:52:10.258Z,29.46
2016-06-06T10:53:10.275Z,29.49
2016-06-06T10:54:10.107Z,29.39
2016-06-06T10:55:10.266Z,29.32
2016-06-06T10:56:10.268Z,29.03
2016-06-06T10:57:10.286Z,28.87
2016-06-06T10:58:10.273Z,28.92
2016-06-06T10:59:10.291Z,28.92
2016-06-06T11:00:11.466Z,28.77
2016-06-06T11:01:10.313Z,28.62
2016-06-06T11:02:10.299Z,28.34
2016-06-06T11:03:10.318Z,28.09
2016-06-06T11:04:10.321Z,27.67
2016-06-06T11:05:10.324Z,27.28
2016-06-06T11:06:10.327Z,26.93
2016-06-06T11:07:10.329Z,26.74
2016-06-06T11:08:10.331Z,26.73
2016-06-06T11:09:10.334Z,26.64
2016-06-06T11:10:10.337Z,26.51
2016-06-06T11:11:10.340Z,26.36
2016-06-06T11:12:10.358Z,26.27
2016-06-06T11:13:10.361Z,26.41
2016-06-06T11:14:10.395Z,26.45
2016-06-06T11:15:11.366Z,26.61
2016-06-06T11:16:10.384Z,26.68
2016-06-06T11:17:10.386Z,26.68
2016-06-06T11:18:10.390Z,26.79
2016-06-06T11:19:10.343Z,26.91
2016-06-06T11:20:10.330Z,26.98
2016-06-06T11:21:10.333Z,26.92
2016-06-06T11:22:10.336Z,27.01
2016-06-06T11:23:10.353Z,26.96
2016-06-06T11:24:10.356Z,26.96
2016-06-06T11:25:10.219Z,26.89
2016-06-06T11:26:10.377Z,26.88
2016-06-06T11:27:10.364Z,26.78
2016-06-06T11:28:10.383Z,26.82
2016-06-06T11:29:10.385Z,26.85
2016-06-06T11:30:10.388Z,26.83
2016-06-06T11:31:10.391Z,26.83
2016-06-06T11:32:10.409Z,26.88
2016-06-06T11:33:10.255Z,26.73
2016-06-06T11:34:10.399Z,26.71
2016-06-06T11:35:10.417Z,26.71
2016-06-06T11:36:10.435Z,26.52
2016-06-06T11:37:10.423Z,26.61
2016-06-06T11:38:10.441Z,26.37
2016-06-06T11:39:10.381Z,26.31
2016-06-06T11:40:10.384Z,26.22
2016-06-06T11:41:10.386Z,26.08
2016-06-06T11:42:10.420Z,26.22
2016-06-06T11:43:10.407Z,26.27
2016-06-06T11:44:11.114Z,26.33
2016-06-06T11:45:11.506Z,26.39
2016-06-06T11:46:10.415Z,26.45
2016-06-06T11:47:10.418Z,26.44
2016-06-06T11:48:10.420Z,26.36
2016-06-06T11:49:10.267Z,26.23
2016-06-06T11:50:10.426Z,26.07
2016-06-06T11:51:10.429Z,25.91
2016-06-06T11:52:10.447Z,25.83
2016-06-06T11:53:10.294Z,25.92
2016-06-06T11:54:10.453Z,25.99
2016-06-06T11:55:10.455Z,25.96
2016-06-06T11:56:10.474Z,25.89
2016-06-06T11:57:10.461Z,25.86
2016-06-06T11:58:10.322Z,25.89
2016-06-06T11:59:10.325Z,25.92
2016-06-06T12:00:10.906Z,25.88
2016-06-06T12:01:10.331Z,25.78
2016-06-06T12:02:10.490Z,25.76
2016-06-06T12:03:10.492Z,25.86
2016-06-06T12:04:10.511Z,25.8
2016-06-06T12:05:10.514Z,25.86
2016-06-06T12:06:10.360Z,25.95
2016-06-06T12:07:10.534Z,26.03
2016-06-06T12:08:10.522Z,25.92
2016-06-06T12:11:00.015Z,25.48
2016-06-06T12:12:00.079Z,25.54
2016-06-06T12:13:00.332Z,25.56
2016-06-06T12:14:00.898Z,25.48
2016-06-06T12:15:00.275Z,25.52
2016-06-06T12:16:00.153Z,25.48
2016-06-06T12:17:00.156Z,25.44
2016-06-06T12:18:00.158Z,25.51
2016-06-06T12:19:00.161Z,25.46
2016-06-06T12:20:00.164Z,25.49
2016-06-06T12:21:00.181Z,25.44
2016-06-06T12:22:00.169Z,25.58
2016-06-06T12:23:00.187Z,25.56
2016-06-06T12:24:00.205Z,25.71
2016-06-06T12:25:00.192Z,25.74
2016-06-06T12:26:00.194Z,25.81
2016-06-06T12:27:00.197Z,25.88
2016-06-06T12:28:00.200Z,26.07
2016-06-06T12:29:00.780Z,26.1
2016-06-06T12:30:00.221Z,25.98
2016-06-06T12:31:00.224Z,25.95
2016-06-06T12:32:00.071Z,25.95
2016-06-06T12:33:00.230Z,25.89
2016-06-06T12:34:00.232Z,25.8
2016-06-06T12:35:00.234Z,25.86
2016-06-06T12:36:00.238Z,25.77
2016-06-06T12:37:00.240Z,25.81
2016-06-06T12:38:00.274Z,25.8
2016-06-06T12:39:00.261Z,25.81
2016-06-06T12:40:00.264Z,25.81
2016-06-06T12:41:00.313Z,25.85
2016-06-06T12:42:00.113Z,25.74
2016-06-06T12:43:00.272Z,25.86
2016-06-06T12:44:00.307Z,25.89
2016-06-06T12:45:00.293Z,25.95
2016-06-06T12:46:00.280Z,26.06
2016-06-06T12:47:00.298Z,26.08
2016-06-06T12:48:00.301Z,26.07
2016-06-06T12:49:00.164Z,26.03
2016-06-06T12:50:00.306Z,25.95
2016-06-06T12:51:00.309Z,25.96
2016-06-06T12:52:00.312Z,25.95
2016-06-06T12:53:00.330Z,25.96
2016-06-06T12:54:00.333Z,25.98
2016-06-06T12:55:00.336Z,25.98
2016-06-06T12:56:00.339Z,25.98
2016-06-06T12:57:00.356Z,26.04
2016-06-06T12:58:00.343Z,25.95
2016-06-06T12:59:00.361Z,25.95
2016-06-06T13:00:00.786Z,25.99
2016-06-06T13:01:00.367Z,26.07
2016-06-06T13:02:00.355Z,26.13
2016-06-06T13:03:00.372Z,26.1
2016-06-06T13:04:00.391Z,26.06
2016-06-06T13:05:00.393Z,26.1
2016-06-06T13:06:00.381Z,26.11
2016-06-06T13:07:00.399Z,26.06
2016-06-06T13:08:00.385Z,26.1
2016-06-06T13:09:00.233Z,26.08
2016-06-06T13:10:00.391Z,26.08
2016-06-06T13:11:00.394Z,26.15
2016-06-06T13:12:00.412Z,26.19
2016-06-06T13:13:00.415Z,26.19
2016-06-06T13:14:00.793Z,26.07
2016-06-06T13:15:00.437Z,26.07
2016-06-06T13:16:00.423Z,25.95
2016-06-06T13:17:00.442Z,25.91
2016-06-06T13:18:00.428Z,25.95
2016-06-06T13:19:00.431Z,25.95
2016-06-06T13:20:00.434Z,25.88
2016-06-06T13:21:00.437Z,25.89
2016-06-06T13:22:00.455Z,26.04
2016-06-06T13:23:00.458Z,26.11
2016-06-06T13:24:00.476Z,26.07
2016-06-06T13:25:00.463Z,26.07
2016-06-06T13:26:00.309Z,26.1
2016-06-06T13:27:00.469Z,25.91
2016-06-06T13:28:00.486Z,25.81
2016-06-06T13:29:00.489Z,25.81
2016-06-06T13:30:00.492Z,25.88
2016-06-06T13:31:00.494Z,25.89
2016-06-06T13:32:00.482Z,25.93
2016-06-06T13:33:00.500Z,25.95
2016-06-06T13:34:00.502Z,26.01
2016-06-06T13:35:00.505Z,25.95
2016-06-06T13:36:00.508Z,25.92
2016-06-06T13:37:00.527Z,26.04
2016-06-06T13:38:00.513Z,26.08
2016-06-06T13:39:00.516Z,26.08
2016-06-06T13:40:00.519Z,26.13
2016-06-06T13:41:00.537Z,26.24
2016-06-06T13:42:00.524Z,26.39
2016-06-06T13:43:00.542Z,26.37
2016-06-06T13:44:00.999Z,26.52
2016-06-06T13:45:00.549Z,26.63
2016-06-06T13:46:00.551Z,26.56
2016-06-06T13:47:00.569Z,26.59
2016-06-06T13:48:00.557Z,26.55
2016-06-06T13:49:00.575Z,26.52
2016-06-06T13:50:00.561Z,26.36
2016-06-06T13:51:00.564Z,26.44
2016-06-06T13:52:00.567Z,26.26
2016-06-06T13:53:00.586Z,26.29
2016-06-06T13:54:00.588Z,26.24
2016-06-06T13:55:00.591Z,26.19
2016-06-06T13:56:00.609Z,26.07
2016-06-06T13:57:00.611Z,26.07
2016-06-06T13:58:00.599Z,26.07
2016-06-06T13:59:00.476Z,26.06
2016-06-06T14:00:00.619Z,26.03
2016-06-06T14:01:00.638Z,25.99
2016-06-06T14:02:00.625Z,26.03
2016-06-06T14:03:00.628Z,25.96
2016-06-06T14:04:00.630Z,25.93
2016-06-06T14:05:00.633Z,25.96
2016-06-06T14:06:00.636Z,25.91
2016-06-06T14:07:00.639Z,25.95
2016-06-06T14:08:00.657Z,25.98
2016-06-06T14:09:00.660Z,26.11
2016-06-06T14:10:00.490Z,26.07
2016-06-06T14:11:00.649Z,26.1
2016-06-06T14:12:00.652Z,26.15
2016-06-06T14:13:00.827Z,26.1
2016-06-06T14:14:00.673Z,26.11
2016-06-06T14:15:00.551Z,26.07
2016-06-06T14:16:00.523Z,26.07
2016-06-06T14:17:00.697Z,25.98
2016-06-06T14:18:00.684Z,25.98
2016-06-06T14:19:00.701Z,26.01
2016-06-06T14:20:00.689Z,26.07
2016-06-06T14:21:00.692Z,26.11
2016-06-06T14:22:00.709Z,26.01
2016-06-06T14:23:00.712Z,25.96
2016-06-06T14:24:00.419Z,25.93
2016-06-06T14:25:00.562Z,25.77
2016-06-06T14:26:00.721Z,25.63
2016-06-06T14:27:00.739Z,25.61
2016-06-06T14:28:00.725Z,25.43
2016-06-06T14:29:00.729Z,25.52
2016-06-06T14:30:00.591Z,25.41
2016-06-06T14:31:00.733Z,25.4
2016-06-06T14:32:00.597Z,25.36
2016-06-06T14:33:00.739Z,25.36
2016-06-06T14:34:00.758Z,25.36
2016-06-06T14:35:00.760Z,25.24
2016-06-06T14:36:00.763Z,25.31
2016-06-06T14:37:00.766Z,25.39
2016-06-06T14:38:00.769Z,25.26
2016-06-06T14:39:00.771Z,25.33
2016-06-06T14:40:00.775Z,25.3
2016-06-06T14:41:00.777Z,25.39
2016-06-06T14:42:00.795Z,25.51
2016-06-06T14:43:00.782Z,25.48
2016-06-06T14:44:00.785Z,25.44
2016-06-06T14:45:00.804Z,25.49
2016-06-06T14:46:00.806Z,25.51
2016-06-06T14:47:00.809Z,25.48
2016-06-06T14:48:00.654Z,25.55
2016-06-06T14:49:00.815Z,25.56
2016-06-06T14:50:00.817Z,25.61
2016-06-06T14:51:00.819Z,25.55
2016-06-06T14:52:00.681Z,25.73
2016-06-06T14:53:00.825Z,25.59
2016-06-06T14:54:00.827Z,25.68
2016-06-06T14:55:00.830Z,25.66
2016-06-06T14:56:00.848Z,25.73
2016-06-06T14:57:00.851Z,25.86
2016-06-06T14:58:00.853Z,25.78
2016-06-06T14:59:00.857Z,25.83
2016-06-06T15:00:01.422Z,25.95
2016-06-06T15:01:00.862Z,26.03
2016-06-06T15:02:00.896Z,25.99
2016-06-06T15:03:00.867Z,26.01
2016-06-06T15:04:00.870Z,25.95
2016-06-06T15:05:00.732Z,25.95
2016-06-06T15:06:00.875Z,25.93
2016-06-06T15:07:00.894Z,26.03
2016-06-06T15:08:00.896Z,26.07
2016-06-06T15:09:00.884Z,26.1
2016-06-06T15:10:00.902Z,26.15
2016-06-06T15:11:00.904Z,26.13
2016-06-06T15:12:00.907Z,26.29
2016-06-06T15:13:00.910Z,26.22
2016-06-06T15:14:00.912Z,26.36
2016-06-06T15:15:01.774Z,26.39
2016-06-06T15:16:00.918Z,26.45
2016-06-06T15:17:00.920Z,26.41
2016-06-06T15:18:00.923Z,26.37
2016-06-06T15:19:00.926Z,26.29
2016-06-06T15:20:00.929Z,26.29
2016-06-06T15:21:00.932Z,26.22
2016-06-06T15:22:00.934Z,26.23
2016-06-06T15:23:00.937Z,26.24
2016-06-06T15:24:00.956Z,26.31
2016-06-06T15:25:00.959Z,26.41
2016-06-06T15:26:00.961Z,26.48
2016-06-06T15:27:00.963Z,26.6
2016-06-06T15:28:00.966Z,26.63
2016-06-06T15:29:00.969Z,26.71
2016-06-06T15:30:01.706Z,26.7
2016-06-06T15:31:01.475Z,26.74
2016-06-06T15:32:00.977Z,26.76
2016-06-06T15:33:00.980Z,26.82
2016-06-06T15:34:00.982Z,26.89
2016-06-06T15:35:00.986Z,27.07
2016-06-06T15:36:00.988Z,27.07
2016-06-06T15:37:00.991Z,27.01
2016-06-06T15:38:00.993Z,26.96
2016-06-06T15:39:00.996Z,26.86
2016-06-06T15:40:01.014Z,26.85
2016-06-06T15:41:01.032Z,26.67
2016-06-06T15:42:01.019Z,26.61
2016-06-06T15:43:01.021Z,26.46
2016-06-06T15:44:01.024Z,26.36
2016-06-06T15:45:01.246Z,26.24
2016-06-06T15:46:01.030Z,26.1
2016-06-06T15:47:01.049Z,26.03
2016-06-06T15:48:01.035Z,25.74
2016-06-06T15:49:01.038Z,25.8
2016-06-06T15:50:01.057Z,25.59
2016-06-06T15:51:01.060Z,25.56
2016-06-06T15:52:01.062Z,25.48
2016-06-06T15:53:01.065Z,25.54
2016-06-06T15:54:01.067Z,25.49
2016-06-06T15:55:01.085Z,25.37
2016-06-06T15:56:01.073Z,25.25
2016-06-06T15:57:00.919Z,25.31
2016-06-06T15:58:01.078Z,25.31
2016-06-06T15:59:00.940Z,25.22
2016-06-06T16:00:01.912Z,25.22
2016-06-06T16:01:01.086Z,25.16
2016-06-06T16:02:00.948Z,25.07
2016-06-06T16:03:01.092Z,25.07
2016-06-06T16:04:01.109Z,25.01
2016-06-06T16:05:01.112Z,25
2016-06-06T16:06:01.115Z,24.82
2016-06-06T16:07:01.133Z,24.84
2016-06-06T16:08:01.136Z,24.85
2016-06-06T16:09:01.123Z,24.89
2016-06-06T16:10:01.126Z,24.94
2016-06-06T16:11:01.128Z,24.94
2016-06-06T16:12:01.131Z,24.97
2016-06-06T16:13:01.291Z,24.94
2016-06-06T16:14:01.137Z,25.06
2016-06-06T16:15:01.483Z,25.12
2016-06-06T16:16:01.142Z,25.06
2016-06-06T16:17:01.144Z,25.03
2016-06-06T16:18:01.007Z,25.07
2016-06-06T16:19:01.166Z,25.11
2016-06-06T16:20:01.169Z,25.11
2016-06-06T16:21:01.218Z,25.16
2016-06-06T16:22:01.174Z,25.19
2016-06-06T16:23:01.177Z,25.24
2016-06-06T16:24:01.179Z,25.25
2016-06-06T16:25:01.182Z,25.25
2016-06-06T16:26:01.185Z,25.16
2016-06-06T16:27:01.187Z,25.31
2016-06-06T16:28:01.190Z,25.34
2016-06-06T16:29:01.193Z,25.34
2016-06-06T16:30:01.414Z,25.4
2016-06-06T16:31:01.198Z,25.39
2016-06-06T16:32:01.201Z,25.36
2016-06-06T16:33:01.203Z,25.39
2016-06-06T16:34:01.237Z,25.34
2016-06-06T16:35:01.225Z,25.4
2016-06-06T16:36:01.228Z,25.39
2016-06-06T16:37:01.214Z,25.41
2016-06-06T16:38:01.233Z,25.4
2016-06-06T16:39:01.236Z,25.41
2016-06-06T16:40:01.238Z,25.41
2016-06-06T16:41:01.069Z,25.51
2016-06-06T16:42:01.244Z,25.59
2016-06-06T16:43:01.251Z,25.55
2016-06-06T16:44:01.259Z,25.52
2016-06-06T16:45:01.891Z,25.46
2016-06-06T16:46:01.274Z,25.49
2016-06-06T16:47:01.282Z,25.49
2016-06-06T16:48:01.302Z,25.43
2016-06-06T16:49:00.994Z,25.46
2016-06-06T16:50:01.294Z,25.43
2016-06-06T16:51:01.314Z,25.46
2016-06-06T16:52:01.303Z,25.46
2016-06-06T16:53:01.166Z,25.51
2016-06-06T16:54:01.325Z,25.49
2016-06-06T16:55:01.329Z,25.46
2016-06-06T16:56:01.332Z,25.48
2016-06-06T16:57:01.180Z,25.46
2016-06-06T16:58:01.339Z,25.48
2016-06-06T16:59:01.341Z,25.44
2016-06-06T17:00:02.423Z,25.49
2016-06-06T17:01:01.364Z,25.49
2016-06-06T17:02:01.351Z,25.52
2016-06-06T17:03:01.354Z,25.54
2016-06-06T17:04:01.356Z,25.56
2016-06-06T17:05:01.359Z,25.62
2016-06-06T17:06:01.361Z,25.66
2016-06-06T17:07:01.365Z,25.66
2016-06-06T17:08:01.367Z,25.76
2016-06-06T17:09:01.370Z,25.74
2016-06-06T17:10:01.389Z,25.8
2016-06-06T17:11:01.235Z,25.74
2016-06-06T17:12:01.378Z,25.83
2016-06-06T17:13:01.397Z,25.86
2016-06-06T17:14:01.383Z,25.92
2016-06-06T17:15:02.324Z,25.88
2016-06-06T17:16:01.405Z,25.83
2016-06-06T17:17:01.391Z,25.83
2016-06-06T17:18:01.410Z,25.8
2016-06-06T17:19:01.429Z,25.78
2016-06-06T17:20:01.415Z,25.76
2016-06-06T17:21:01.418Z,25.77
2016-06-06T17:22:01.421Z,25.83
2016-06-06T17:23:01.424Z,25.85
2016-06-06T17:24:01.426Z,25.81
2016-06-06T17:25:01.429Z,25.77
2016-06-06T17:26:01.431Z,25.73
2016-06-06T17:27:01.434Z,25.7
2016-06-06T17:28:01.453Z,25.7
2016-06-06T17:29:01.455Z,25.58
2016-06-06T17:30:01.427Z,25.63
2016-06-06T17:31:01.461Z,25.59
2016-06-06T17:32:01.463Z,25.54
2016-06-06T17:33:01.467Z,25.52
2016-06-06T17:34:01.469Z,25.49
2016-06-06T17:35:01.299Z,25.44
2016-06-06T17:36:01.474Z,25.44
2016-06-06T17:37:01.477Z,25.41
2016-06-06T17:38:01.479Z,25.49
2016-06-06T17:39:01.483Z,25.39
2016-06-06T17:40:01.485Z,25.36
2016-06-06T17:41:01.487Z,25.37
2016-06-06T17:42:01.491Z,25.4
2016-06-06T17:43:01.508Z,25.37
2016-06-06T17:44:01.355Z,25.39
2016-06-06T17:45:01.373Z,25.44
2016-06-06T17:46:01.502Z,25.49
2016-06-06T17:47:01.504Z,25.52
2016-06-06T17:48:01.506Z,25.66
2016-06-06T17:49:01.525Z,25.7
2016-06-06T17:50:01.512Z,25.7
2016-06-06T17:51:01.529Z,25.86
2016-06-06T17:52:01.548Z,25.81
2016-06-06T17:53:01.520Z,25.86
2016-06-06T17:54:01.523Z,25.85
2016-06-06T17:55:01.540Z,25.86
2016-06-06T17:56:01.543Z,25.83
2016-06-06T17:57:01.546Z,25.89
2016-06-06T17:58:01.548Z,25.86
2016-06-06T17:59:01.551Z,25.83
2016-06-06T18:00:02.054Z,25.85
2016-06-06T18:01:01.573Z,25.86
2016-06-06T18:02:01.559Z,25.86
2016-06-06T18:03:01.562Z,25.81
2016-06-06T18:04:01.565Z,25.81
2016-06-06T18:05:01.567Z,25.7
2016-06-06T18:06:01.570Z,25.67
2016-06-06T18:07:01.573Z,25.67
2016-06-06T18:08:01.591Z,25.73
2016-06-06T18:09:01.578Z,25.67
2016-06-06T18:10:01.597Z,25.68
2016-06-06T18:11:01.599Z,25.59
2016-06-06T18:12:01.602Z,25.66
2016-06-06T18:13:01.855Z,25.63
2016-06-06T18:14:01.608Z,25.76
2016-06-06T18:15:01.735Z,25.63
2016-06-06T18:16:01.613Z,25.7
2016-06-06T18:17:01.460Z,25.74
2016-06-06T18:18:01.618Z,25.74
2016-06-06T18:19:01.621Z,25.7
2016-06-06T18:20:01.624Z,25.63
2016-06-06T18:21:01.627Z,25.66
2016-06-06T18:22:01.629Z,25.49
2016-06-06T18:23:01.632Z,25.44
2016-06-06T18:24:01.634Z,25.43
2016-06-06T18:25:01.638Z,25.36
2016-06-06T18:26:01.639Z,25.31
2016-06-06T18:27:01.642Z,25.29
2016-06-06T18:28:01.645Z,25.31
2016-06-06T18:29:01.648Z,25.33
2016-06-06T18:30:01.665Z,25.29
2016-06-06T18:31:01.513Z,25.3
2016-06-06T18:32:01.656Z,25.3
2016-06-06T18:33:01.517Z,25.22
2016-06-06T18:34:01.676Z,25.14
2016-06-06T18:35:01.679Z,24.96
2016-06-06T18:36:01.526Z,24.93
2016-06-06T18:37:01.528Z,24.82
2016-06-06T18:38:01.687Z,24.65
2016-06-06T18:39:01.706Z,24.63
2016-06-06T18:40:01.692Z,24.59
2016-06-06T18:41:01.695Z,24.59
2016-06-06T18:42:01.698Z,24.55
2016-06-06T18:43:01.700Z,24.53
2016-06-06T18:44:01.704Z,24.38
2016-06-06T18:45:02.003Z,24.4
2016-06-06T18:46:01.709Z,24.43
2016-06-06T18:47:01.727Z,24.22
2016-06-06T18:48:01.714Z,24.22
2016-06-06T18:49:01.717Z,24.21
2016-06-06T18:50:01.719Z,24.13
2016-06-06T18:51:01.738Z,24.09
2016-06-06T18:52:01.741Z,24.09
2016-06-06T18:53:01.728Z,24.07
2016-06-06T18:54:01.574Z,24
2016-06-06T18:55:01.732Z,23.99
2016-06-06T18:56:01.736Z,23.89
2016-06-06T18:57:01.738Z,23.84
2016-06-06T18:58:01.741Z,23.81
2016-06-06T18:59:01.604Z,23.77
2016-06-06T19:00:01.996Z,23.66
2016-06-06T19:01:01.748Z,23.67
2016-06-06T19:02:01.751Z,23.58
2016-06-06T19:03:01.754Z,23.44
2016-06-06T19:04:01.757Z,23.45
2016-06-06T19:05:01.759Z,23.29
2016-06-06T19:06:01.762Z,23.32
2016-06-06T19:07:01.765Z,23.25
2016-06-06T19:08:01.784Z,23.13
2016-06-06T19:09:04.036Z,23.04
2016-06-06T19:10:01.773Z,23.02
2016-06-06T19:11:01.776Z,23.02
2016-06-06T19:12:01.779Z,22.88
2016-06-06T19:13:01.797Z,22.88
2016-06-06T19:14:01.784Z,22.8
2016-06-06T19:15:01.802Z,22.78
2016-06-06T19:16:01.822Z,22.71
2016-06-06T19:17:01.808Z,22.62
2016-06-06T19:18:01.795Z,22.65
2016-06-06T19:19:01.813Z,22.65
2016-06-06T19:20:01.816Z,22.52
2016-06-06T19:21:01.819Z,22.59
2016-06-06T19:22:01.822Z,22.56
2016-06-06T19:23:01.824Z,22.52
2016-06-06T19:24:01.827Z,22.49
2016-06-06T19:25:01.829Z,22.43
2016-06-06T19:26:01.832Z,22.43
2016-06-06T19:27:01.835Z,22.36
2016-06-06T19:28:01.837Z,22.3
2016-06-06T19:29:01.840Z,22.3
2016-06-06T19:30:01.843Z,22.23
2016-06-06T19:31:01.846Z,22.25
2016-06-06T19:32:01.848Z,22.33
2016-06-06T19:33:01.851Z,22.19
2016-06-06T19:34:01.854Z,22.14
2016-06-06T19:35:01.715Z,22.15
2016-06-06T19:36:01.875Z,22.12
2016-06-06T19:37:01.862Z,22.07
2016-06-06T19:38:01.865Z,22.19
2016-06-06T19:39:01.867Z,22.08
2016-06-06T19:40:01.870Z,22.1
2016-06-06T19:41:01.873Z,22.04
2016-06-06T19:42:01.891Z,22
2016-06-06T19:43:01.737Z,21.92
2016-06-06T19:44:01.881Z,21.92
2016-06-06T19:45:01.883Z,21.8
2016-06-06T19:46:01.886Z,21.94
2016-06-06T19:47:01.889Z,21.8
2016-06-06T19:48:01.891Z,21.75
2016-06-06T19:49:01.910Z,21.78
2016-06-06T19:50:01.896Z,21.83
2016-06-06T19:51:01.899Z,21.69
2016-06-06T19:52:01.902Z,21.68
2016-06-06T19:53:01.921Z,21.59
2016-06-06T19:54:01.907Z,21.69
2016-06-06T19:55:01.910Z,21.54
2016-06-06T19:56:01.913Z,21.58
2016-06-06T19:57:01.916Z,21.58
2016-06-06T19:58:01.934Z,21.58
2016-06-06T19:59:01.765Z,21.66
2016-06-06T20:00:01.923Z,21.51
2016-06-06T20:01:01.926Z,21.56
2016-06-06T20:02:01.929Z,21.58
2016-06-06T20:03:01.931Z,21.53
2016-06-06T20:04:01.934Z,21.6
2016-06-06T20:05:02.266Z,21.53
2016-06-06T20:06:02.002Z,21.54
2016-06-06T20:07:01.943Z,21.5
2016-06-06T20:08:01.945Z,21.47
2016-06-06T20:09:01.948Z,21.47
2016-06-06T20:10:01.950Z,21.5
2016-06-06T20:11:01.953Z,21.44
2016-06-06T20:12:01.956Z,21.41
2016-06-06T20:13:02.099Z,21.53
2016-06-06T20:14:01.649Z,21.47
2016-06-06T20:15:01.964Z,21.47
2016-06-06T20:16:01.810Z,21.5
2016-06-06T20:17:01.813Z,21.4
2016-06-06T20:18:01.972Z,21.45
2016-06-06T20:19:01.975Z,21.43
2016-06-06T20:20:01.993Z,21.45
2016-06-06T20:21:01.715Z,21.45
2016-06-06T20:22:01.983Z,21.33
2016-06-06T20:23:01.985Z,21.32
2016-06-06T20:24:01.988Z,21.28
2016-06-06T20:25:01.991Z,21.28
2016-06-06T20:26:01.993Z,21.25
2016-06-06T20:27:01.996Z,21.17
2016-06-06T20:28:01.983Z,21.13
2016-06-06T20:29:01.986Z,21.04
2016-06-06T20:30:01.988Z,21.05
2016-06-06T20:31:01.991Z,20.92
2016-06-06T20:32:01.994Z,20.98
2016-06-06T20:33:01.997Z,20.85
2016-06-06T20:34:02.016Z,20.78
2016-06-06T20:35:02.034Z,20.67
2016-06-06T20:36:02.317Z,20.63
2016-06-06T20:37:02.023Z,20.55
2016-06-06T20:38:02.010Z,20.53
2016-06-06T20:39:02.028Z,20.53
2016-06-06T20:40:02.031Z,20.53
2016-06-06T20:41:02.018Z,20.37
2016-06-06T20:42:02.021Z,20.49
2016-06-06T20:43:02.039Z,20.46
2016-06-06T20:44:02.026Z,20.4
2016-06-06T20:45:02.028Z,20.4
2016-06-06T20:46:02.031Z,20.33
2016-06-06T20:47:02.050Z,20.22
2016-06-06T20:48:02.037Z,20.24
2016-06-06T20:49:02.039Z,20.18
2016-06-06T20:50:02.558Z,20.17
2016-06-06T20:51:02.794Z,20.15
2016-06-06T20:52:02.047Z,20.03
2016-06-06T20:53:02.050Z,19.97
2016-06-06T20:54:02.053Z,19.97
2016-06-06T20:55:02.071Z,19.97
2016-06-06T20:56:02.074Z,19.94
2016-06-06T20:57:02.077Z,19.97
2016-06-06T20:58:02.064Z,19.93
2016-06-06T20:59:02.066Z,19.97
2016-06-06T21:00:02.069Z,19.96
2016-06-06T21:01:02.088Z,19.87
2016-06-06T21:02:02.075Z,19.9
2016-06-06T21:03:02.078Z,19.79
2016-06-06T21:04:02.095Z,19.87
2016-06-06T21:05:02.301Z,19.82
2016-06-06T21:06:02.086Z,19.79
2016-06-06T21:07:02.088Z,19.89
2016-06-06T21:08:02.090Z,19.85
2016-06-06T21:09:02.093Z,19.85
2016-06-06T21:10:01.940Z,19.85
2016-06-06T21:11:02.099Z,19.87
2016-06-06T21:12:02.101Z,19.92
2016-06-06T21:13:02.104Z,19.84
2016-06-06T21:14:02.107Z,19.85
2016-06-06T21:15:02.110Z,19.78
2016-06-06T21:16:02.097Z,19.79
2016-06-06T21:17:02.115Z,19.81
2016-06-06T21:18:01.961Z,19.79
2016-06-06T21:19:02.106Z,19.78
2016-06-06T21:20:02.326Z,19.72
2016-06-06T21:21:01.969Z,19.81
2016-06-06T21:22:02.113Z,19.74
2016-06-06T21:23:02.131Z,19.72
2016-06-06T21:24:02.118Z,19.75
2016-06-06T21:25:02.121Z,19.67
2016-06-06T21:26:02.124Z,19.75
2016-06-06T21:27:02.127Z,19.63
2016-06-06T21:28:02.129Z,19.66
2016-06-06T21:29:02.132Z,19.7
2016-06-06T21:30:02.135Z,19.59
2016-06-06T21:31:02.137Z,19.59
2016-06-06T21:32:01.984Z,19.56
2016-06-06T21:33:02.142Z,19.52
2016-06-06T21:34:02.145Z,19.49
2016-06-06T21:35:02.148Z,19.48
2016-06-06T21:36:02.166Z,19.45